sensor_id;sensor_type;location;lat;lon;timestamp;temperature;humidity
22738;DHT22;11536;50.860;4.286;2024-01-10T00:02:20;-1.60;99.90
22738;DHT22;11536;50.860;4.286;2024-01-10T00:04:45;-1.60;99.90
22738;DHT22;11536;50.860;4.286;2024-01-10T00:07:11;-1.60;99.90
22738;DHT22;11536;50.860;4.286;2024-01-10T00:09:36;-1.70;99.90
22738;DHT22;11536;50.860;4.286;2024-01-10T00:12:02;-1.70;99.90
22738;DHT22;11536;50.860;4.286;2024-01-10T00:14:28;-1.70;99.90
22738;DHT22;11536;50.860;4.286;2024-01-10T00:16:53;-1.70;99.90
22738;DHT22;11536;50.860;4.286;2024-01-10T00:19:19;-1.80;99.90
22738;DHT22;11536;50.860;4.286;2024-01-10T00:21:44;-1.80;99.90
22738;DHT22;11536;50.860;4.286;2024-01-10T00:24:10;-1.80;99.90
22738;DHT22;11536;50.860;4.286;2024-01-10T00:26:36;-1.80;99.90
22738;DHT22;11536;50.860;4.286;2024-01-10T00:29:01;-1.80;99.90
22738;DHT22;11536;50.860;4.286;2024-01-10T00:31:27;-1.90;99.90
22738;DHT22;11536;50.860;4.286;2024-01-10T00:33:53;-1.90;99.90
22738;DHT22;11536;50.860;4.286;2024-01-10T00:36:18;-1.90;99.90
22738;DHT22;11536;50.860;4.286;2024-01-10T00:38:44;-1.90;99.90
22738;DHT22;11536;50.860;4.286;2024-01-10T00:41:10;-1.90;99.90
22738;DHT22;11536;50.860;4.286;2024-01-10T00:43:37;-1.90;99.90
22738;DHT22;11536;50.860;4.286;2024-01-10T00:46:03;-1.90;99.90
22738;DHT22;11536;50.860;4.286;2024-01-10T00:48:28;-1.90;99.90
22738;DHT22;11536;50.860;4.286;2024-01-10T00:50:54;-2.00;99.90
22738;DHT22;11536;50.860;4.286;2024-01-10T00:53:19;-2.00;99.90
22738;DHT22;11536;50.860;4.286;2024-01-10T00:55:45;-2.00;99.90
22738;DHT22;11536;50.860;4.286;2024-01-10T00:58:11;-1.90;99.90
22738;DHT22;11536;50.860;4.286;2024-01-10T01:00:36;-2.00;99.90
22738;DHT22;11536;50.860;4.286;2024-01-10T01:03:02;-2.00;99.90
22738;DHT22;11536;50.860;4.286;2024-01-10T01:05:27;-2.00;99.90
22738;DHT22;11536;50.860;4.286;2024-01-10T01:07:53;-2.10;99.90
22738;DHT22;11536;50.860;4.286;2024-01-10T01:10:19;-2.10;99.90
22738;DHT22;11536;50.860;4.286;2024-01-10T01:12:44;-2.20;99.90
22738;DHT22;11536;50.860;4.286;2024-01-10T01:15:10;-2.20;99.90
22738;DHT22;11536;50.860;4.286;2024-01-10T01:17:36;-2.20;99.90
22738;DHT22;11536;50.860;4.286;2024-01-10T01:20:01;-2.30;99.90
22738;DHT22;11536;50.860;4.286;2024-01-10T01:22:30;-2.30;99.90
22738;DHT22;11536;50.860;4.286;2024-01-10T01:24:56;-2.40;99.90
22738;DHT22;11536;50.860;4.286;2024-01-10T01:27:22;-2.40;99.90
22738;DHT22;11536;50.860;4.286;2024-01-10T01:29:49;-2.40;99.90
22738;DHT22;11536;50.860;4.286;2024-01-10T01:32:14;-2.40;99.90
22738;DHT22;11536;50.860;4.286;2024-01-10T01:34:40;-2.40;99.90
22738;DHT22;11536;50.860;4.286;2024-01-10T01:37:05;-2.30;99.90
22738;DHT22;11536;50.860;4.286;2024-01-10T01:39:31;-2.40;99.90
22738;DHT22;11536;50.860;4.286;2024-01-10T01:41:57;-2.40;99.90
22738;DHT22;11536;50.860;4.286;2024-01-10T01:44:22;-2.40;99.90
22738;DHT22;11536;50.860;4.286;2024-01-10T01:46:48;-2.40;99.90
22738;DHT22;11536;50.860;4.286;2024-01-10T01:49:14;-2.40;99.90
22738;DHT22;11536;50.860;4.286;2024-01-10T01:51:40;-2.40;99.90
22738;DHT22;11536;50.860;4.286;2024-01-10T01:54:07;-2.40;99.90
22738;DHT22;11536;50.860;4.286;2024-01-10T01:56:36;-2.40;99.90
22738;DHT22;11536;50.860;4.286;2024-01-10T01:59:03;-2.40;99.90
22738;DHT22;11536;50.860;4.286;2024-01-10T02:01:29;-2.30;99.90
22738;DHT22;11536;50.860;4.286;2024-01-10T02:03:56;-2.30;99.90
22738;DHT22;11536;50.860;4.286;2024-01-10T02:06:22;-2.30;99.90
22738;DHT22;11536;50.860;4.286;2024-01-10T02:08:48;-2.30;99.90
22738;DHT22;11536;50.860;4.286;2024-01-10T02:11:14;-2.30;99.90
22738;DHT22;11536;50.860;4.286;2024-01-10T02:13:40;-2.30;99.90
22738;DHT22;11536;50.860;4.286;2024-01-10T02:16:06;-2.20;99.90
22738;DHT22;11536;50.860;4.286;2024-01-10T02:18:33;-2.30;99.90
22738;DHT22;11536;50.860;4.286;2024-01-10T02:21:00;-2.30;99.90
22738;DHT22;11536;50.860;4.286;2024-01-10T02:23:26;-2.30;99.90
22738;DHT22;11536;50.860;4.286;2024-01-10T02:25:52;-2.30;99.90
22738;DHT22;11536;50.860;4.286;2024-01-10T02:28:17;-2.30;99.90
22738;DHT22;11536;50.860;4.286;2024-01-10T02:30:43;-2.30;99.90
22738;DHT22;11536;50.860;4.286;2024-01-10T02:33:09;-2.30;99.90
22738;DHT22;11536;50.860;4.286;2024-01-10T02:35:34;-2.40;99.90
22738;DHT22;11536;50.860;4.286;2024-01-10T02:38:01;-2.40;99.90
22738;DHT22;11536;50.860;4.286;2024-01-10T02:40:27;-2.40;99.90
22738;DHT22;11536;50.860;4.286;2024-01-10T02:42:52;-2.40;99.90
22738;DHT22;11536;50.860;4.286;2024-01-10T02:45:18;-2.40;99.90
22738;DHT22;11536;50.860;4.286;2024-01-10T02:47:44;-2.50;99.90
22738;DHT22;11536;50.860;4.286;2024-01-10T02:50:10;-2.50;99.90
22738;DHT22;11536;50.860;4.286;2024-01-10T02:52:36;-2.60;99.90
22738;DHT22;11536;50.860;4.286;2024-01-10T02:55:01;-2.60;99.90
22738;DHT22;11536;50.860;4.286;2024-01-10T02:57:27;-2.60;99.90
22738;DHT22;11536;50.860;4.286;2024-01-10T02:59:53;-2.60;99.90
22738;DHT22;11536;50.860;4.286;2024-01-10T03:02:18;-2.70;99.90
22738;DHT22;11536;50.860;4.286;2024-01-10T03:04:44;-2.70;99.90
22738;DHT22;11536;50.860;4.286;2024-01-10T03:07:10;-2.80;99.90
22738;DHT22;11536;50.860;4.286;2024-01-10T03:09:36;-2.80;99.90
22738;DHT22;11536;50.860;4.286;2024-01-10T03:12:01;-2.80;99.90
22738;DHT22;11536;50.860;4.286;2024-01-10T03:14:27;-2.80;99.90
22738;DHT22;11536;50.860;4.286;2024-01-10T03:16:53;-2.90;99.90
22738;DHT22;11536;50.860;4.286;2024-01-10T03:19:19;-2.80;99.90
22738;DHT22;11536;50.860;4.286;2024-01-10T03:21:44;-2.90;99.90
22738;DHT22;11536;50.860;4.286;2024-01-10T03:24:10;-2.90;99.90
22738;DHT22;11536;50.860;4.286;2024-01-10T03:26:35;-2.90;99.90
22738;DHT22;11536;50.860;4.286;2024-01-10T03:29:01;-2.80;99.90
22738;DHT22;11536;50.860;4.286;2024-01-10T03:31:28;-2.90;99.90
22738;DHT22;11536;50.860;4.286;2024-01-10T03:33:54;-2.90;99.90
22738;DHT22;11536;50.860;4.286;2024-01-10T03:36:20;-2.90;99.90
22738;DHT22;11536;50.860;4.286;2024-01-10T03:38:46;-2.90;99.90
22738;DHT22;11536;50.860;4.286;2024-01-10T03:41:16;-2.90;99.90
22738;DHT22;11536;50.860;4.286;2024-01-10T03:43:42;-2.90;99.90
22738;DHT22;11536;50.860;4.286;2024-01-10T03:46:08;-3.00;99.90
22738;DHT22;11536;50.860;4.286;2024-01-10T03:48:34;-3.00;99.90
22738;DHT22;11536;50.860;4.286;2024-01-10T03:51:00;-2.90;99.90
22738;DHT22;11536;50.860;4.286;2024-01-10T03:53:26;-2.90;99.90
22738;DHT22;11536;50.860;4.286;2024-01-10T03:55:51;-2.90;99.90
22738;DHT22;11536;50.860;4.286;2024-01-10T03:58:17;-2.90;99.90
22738;DHT22;11536;50.860;4.286;2024-01-10T04:00:43;-2.90;99.90
22738;DHT22;11536;50.860;4.286;2024-01-10T04:03:09;-2.90;99.90
22738;DHT22;11536;50.860;4.286;2024-01-10T04:05:34;-2.90;99.90
22738;DHT22;11536;50.860;4.286;2024-01-10T04:08:00;-2.90;99.90
22738;DHT22;11536;50.860;4.286;2024-01-10T04:10:25;-2.90;99.90
22738;DHT22;11536;50.860;4.286;2024-01-10T04:12:51;-2.90;99.90
22738;DHT22;11536;50.860;4.286;2024-01-10T04:15:17;-2.90;99.90
22738;DHT22;11536;50.860;4.286;2024-01-10T04:17:43;-2.90;99.90
22738;DHT22;11536;50.860;4.286;2024-01-10T04:20:10;-2.80;99.90
22738;DHT22;11536;50.860;4.286;2024-01-10T04:22:36;-2.90;99.90
22738;DHT22;11536;50.860;4.286;2024-01-10T04:25:04;-2.90;99.90
22738;DHT22;11536;50.860;4.286;2024-01-10T04:27:30;-2.90;99.90
22738;DHT22;11536;50.860;4.286;2024-01-10T04:29:56;-2.90;99.90
22738;DHT22;11536;50.860;4.286;2024-01-10T04:32:21;-2.90;99.90
22738;DHT22;11536;50.860;4.286;2024-01-10T04:34:47;-2.90;99.90
22738;DHT22;11536;50.860;4.286;2024-01-10T04:37:13;-2.90;99.90
22738;DHT22;11536;50.860;4.286;2024-01-10T04:39:39;-2.90;99.90
22738;DHT22;11536;50.860;4.286;2024-01-10T04:42:06;-3.00;99.90
22738;DHT22;11536;50.860;4.286;2024-01-10T04:44:31;-3.00;99.90
22738;DHT22;11536;50.860;4.286;2024-01-10T04:46:57;-3.10;99.90
22738;DHT22;11536;50.860;4.286;2024-01-10T04:49:23;-3.00;99.90
22738;DHT22;11536;50.860;4.286;2024-01-10T04:51:50;-3.00;99.90
22738;DHT22;11536;50.860;4.286;2024-01-10T04:54:15;-3.00;99.90
22738;DHT22;11536;50.860;4.286;2024-01-10T04:56:41;-3.10;99.90
22738;DHT22;11536;50.860;4.286;2024-01-10T04:59:07;-3.10;99.90
22738;DHT22;11536;50.860;4.286;2024-01-10T05:01:33;-3.10;99.90
22738;DHT22;11536;50.860;4.286;2024-01-10T05:03:58;-3.10;99.90
22738;DHT22;11536;50.860;4.286;2024-01-10T05:06:24;-3.10;99.90
22738;DHT22;11536;50.860;4.286;2024-01-10T05:08:50;-3.00;99.90
22738;DHT22;11536;50.860;4.286;2024-01-10T05:11:16;-3.00;99.90
22738;DHT22;11536;50.860;4.286;2024-01-10T05:13:44;-3.00;99.90
22738;DHT22;11536;50.860;4.286;2024-01-10T05:16:10;-3.00;99.90
22738;DHT22;11536;50.860;4.286;2024-01-10T05:18:36;-3.00;99.90
22738;DHT22;11536;50.860;4.286;2024-01-10T05:21:03;-3.10;99.90
22738;DHT22;11536;50.860;4.286;2024-01-10T05:23:29;-3.00;99.90
22738;DHT22;11536;50.860;4.286;2024-01-10T05:25:55;-3.00;99.90
22738;DHT22;11536;50.860;4.286;2024-01-10T05:28:21;-3.00;99.90
22738;DHT22;11536;50.860;4.286;2024-01-10T05:30:46;-3.00;99.90
22738;DHT22;11536;50.860;4.286;2024-01-10T05:33:12;-3.00;99.90
22738;DHT22;11536;50.860;4.286;2024-01-10T05:35:41;-3.10;99.90
22738;DHT22;11536;50.860;4.286;2024-01-10T05:38:07;-3.10;99.90
22738;DHT22;11536;50.860;4.286;2024-01-10T05:40:32;-3.10;99.90
22738;DHT22;11536;50.860;4.286;2024-01-10T05:42:58;-3.10;99.90
22738;DHT22;11536;50.860;4.286;2024-01-10T05:45:27;-3.00;99.90
22738;DHT22;11536;50.860;4.286;2024-01-10T05:47:54;-3.00;99.90
22738;DHT22;11536;50.860;4.286;2024-01-10T05:50:20;-3.00;99.90
22738;DHT22;11536;50.860;4.286;2024-01-10T05:52:49;-2.90;99.90
22738;DHT22;11536;50.860;4.286;2024-01-10T05:55:15;-3.00;99.90
22738;DHT22;11536;50.860;4.286;2024-01-10T05:57:40;-3.00;99.90
22738;DHT22;11536;50.860;4.286;2024-01-10T06:00:06;-3.00;99.90
22738;DHT22;11536;50.860;4.286;2024-01-10T06:02:36;-3.00;99.90
22738;DHT22;11536;50.860;4.286;2024-01-10T06:05:08;-3.00;99.90
22738;DHT22;11536;50.860;4.286;2024-01-10T06:07:36;-3.00;99.90
22738;DHT22;11536;50.860;4.286;2024-01-10T06:10:03;-2.90;99.90
22738;DHT22;11536;50.860;4.286;2024-01-10T06:12:29;-2.90;99.90
22738;DHT22;11536;50.860;4.286;2024-01-10T06:14:54;-2.90;99.90
22738;DHT22;11536;50.860;4.286;2024-01-10T06:17:20;-2.90;99.90
22738;DHT22;11536;50.860;4.286;2024-01-10T06:19:46;-2.90;99.90
22738;DHT22;11536;50.860;4.286;2024-01-10T06:22:12;-2.80;99.90
22738;DHT22;11536;50.860;4.286;2024-01-10T06:24:37;-2.90;99.90
22738;DHT22;11536;50.860;4.286;2024-01-10T06:27:04;-2.90;99.90
22738;DHT22;11536;50.860;4.286;2024-01-10T06:29:31;-2.90;99.90
22738;DHT22;11536;50.860;4.286;2024-01-10T06:31:57;-3.00;99.90
22738;DHT22;11536;50.860;4.286;2024-01-10T06:34:23;-3.00;99.90
22738;DHT22;11536;50.860;4.286;2024-01-10T06:36:49;-3.00;99.90
22738;DHT22;11536;50.860;4.286;2024-01-10T06:39:15;-3.00;99.90
22738;DHT22;11536;50.860;4.286;2024-01-10T06:41:42;-3.00;99.90
22738;DHT22;11536;50.860;4.286;2024-01-10T06:44:08;-3.00;99.90
22738;DHT22;11536;50.860;4.286;2024-01-10T06:46:34;-3.00;99.90
22738;DHT22;11536;50.860;4.286;2024-01-10T06:49:00;-3.00;99.90
22738;DHT22;11536;50.860;4.286;2024-01-10T06:51:26;-3.00;99.90
22738;DHT22;11536;50.860;4.286;2024-01-10T06:53:54;-3.00;99.90
22738;DHT22;11536;50.860;4.286;2024-01-10T06:56:28;-3.00;99.90
22738;DHT22;11536;50.860;4.286;2024-01-10T06:58:53;-3.00;99.90
22738;DHT22;11536;50.860;4.286;2024-01-10T07:01:20;-2.90;99.90
22738;DHT22;11536;50.860;4.286;2024-01-10T07:03:47;-2.90;99.90
22738;DHT22;11536;50.860;4.286;2024-01-10T07:06:13;-2.90;99.90
22738;DHT22;11536;50.860;4.286;2024-01-10T07:08:43;-2.90;99.90
22738;DHT22;11536;50.860;4.286;2024-01-10T07:11:10;-2.90;99.90
22738;DHT22;11536;50.860;4.286;2024-01-10T07:13:41;-2.90;99.90
22738;DHT22;11536;50.860;4.286;2024-01-10T07:16:09;-2.80;99.90
22738;DHT22;11536;50.860;4.286;2024-01-10T07:18:36;-2.80;99.90
22738;DHT22;11536;50.860;4.286;2024-01-10T07:21:08;-2.90;99.90
22738;DHT22;11536;50.860;4.286;2024-01-10T07:23:35;-2.90;99.90
22738;DHT22;11536;50.860;4.286;2024-01-10T07:26:01;-2.90;99.90
22738;DHT22;11536;50.860;4.286;2024-01-10T07:28:26;-2.90;99.90
22738;DHT22;11536;50.860;4.286;2024-01-10T07:30:52;-3.00;99.90
22738;DHT22;11536;50.860;4.286;2024-01-10T07:33:18;-3.00;99.90
22738;DHT22;11536;50.860;4.286;2024-01-10T07:35:43;-2.80;99.90
22738;DHT22;11536;50.860;4.286;2024-01-10T07:38:09;-2.90;99.90
22738;DHT22;11536;50.860;4.286;2024-01-10T07:40:35;-2.90;99.90
22738;DHT22;11536;50.860;4.286;2024-01-10T07:43:01;-2.90;99.90
22738;DHT22;11536;50.860;4.286;2024-01-10T07:45:27;-2.90;99.90
22738;DHT22;11536;50.860;4.286;2024-01-10T07:47:52;-3.00;99.90
22738;DHT22;11536;50.860;4.286;2024-01-10T07:50:18;-3.00;99.90
22738;DHT22;11536;50.860;4.286;2024-01-10T07:52:45;-3.00;99.90
22738;DHT22;11536;50.860;4.286;2024-01-10T07:55:11;-3.00;99.90
22738;DHT22;11536;50.860;4.286;2024-01-10T07:57:37;-3.00;99.90
22738;DHT22;11536;50.860;4.286;2024-01-10T08:00:07;-3.00;99.90
22738;DHT22;11536;50.860;4.286;2024-01-10T08:02:36;-3.10;99.90
22738;DHT22;11536;50.860;4.286;2024-01-10T08:05:05;-3.20;99.90
22738;DHT22;11536;50.860;4.286;2024-01-10T08:07:37;-3.10;99.90
22738;DHT22;11536;50.860;4.286;2024-01-10T08:10:07;-3.10;99.90
22738;DHT22;11536;50.860;4.286;2024-01-10T08:12:35;-3.20;99.90
22738;DHT22;11536;50.860;4.286;2024-01-10T08:15:00;-3.10;99.90
22738;DHT22;11536;50.860;4.286;2024-01-10T08:17:27;-3.20;99.90
22738;DHT22;11536;50.860;4.286;2024-01-10T08:19:52;-3.20;99.90
22738;DHT22;11536;50.860;4.286;2024-01-10T08:22:18;-3.20;99.90
22738;DHT22;11536;50.860;4.286;2024-01-10T08:24:48;-3.20;99.90
22738;DHT22;11536;50.860;4.286;2024-01-10T08:27:14;-3.20;99.90
22738;DHT22;11536;50.860;4.286;2024-01-10T08:29:39;-3.20;99.90
22738;DHT22;11536;50.860;4.286;2024-01-10T08:32:05;-3.20;99.90
22738;DHT22;11536;50.860;4.286;2024-01-10T08:34:31;-3.20;99.90
22738;DHT22;11536;50.860;4.286;2024-01-10T08:36:56;-3.20;99.90
22738;DHT22;11536;50.860;4.286;2024-01-10T08:39:22;-3.20;99.90
22738;DHT22;11536;50.860;4.286;2024-01-10T08:41:49;-3.20;99.90
22738;DHT22;11536;50.860;4.286;2024-01-10T08:44:15;-3.10;99.90
22738;DHT22;11536;50.860;4.286;2024-01-10T08:46:41;-3.10;99.90
22738;DHT22;11536;50.860;4.286;2024-01-10T08:49:07;-3.20;99.90
22738;DHT22;11536;50.860;4.286;2024-01-10T08:51:32;-3.10;99.90
22738;DHT22;11536;50.860;4.286;2024-01-10T08:53:58;-3.10;99.90
22738;DHT22;11536;50.860;4.286;2024-01-10T08:56:24;-3.10;99.90
22738;DHT22;11536;50.860;4.286;2024-01-10T08:58:49;-3.00;99.90
22738;DHT22;11536;50.860;4.286;2024-01-10T09:01:15;-3.00;99.90
22738;DHT22;11536;50.860;4.286;2024-01-10T09:03:41;-3.00;99.90
22738;DHT22;11536;50.860;4.286;2024-01-10T09:06:07;-3.00;99.90
22738;DHT22;11536;50.860;4.286;2024-01-10T09:08:35;-3.00;99.90
22738;DHT22;11536;50.860;4.286;2024-01-10T09:11:02;-2.90;99.90
22738;DHT22;11536;50.860;4.286;2024-01-10T09:13:28;-2.90;99.90
22738;DHT22;11536;50.860;4.286;2024-01-10T09:15:54;-2.90;99.90
22738;DHT22;11536;50.860;4.286;2024-01-10T09:18:19;-2.80;99.90
22738;DHT22;11536;50.860;4.286;2024-01-10T09:20:45;-2.80;99.90
22738;DHT22;11536;50.860;4.286;2024-01-10T09:23:11;-2.80;99.90
22738;DHT22;11536;50.860;4.286;2024-01-10T09:25:36;-2.80;99.90
22738;DHT22;11536;50.860;4.286;2024-01-10T09:28:04;-2.80;99.90
22738;DHT22;11536;50.860;4.286;2024-01-10T09:30:30;-2.80;99.90
22738;DHT22;11536;50.860;4.286;2024-01-10T09:32:55;-2.70;99.90
22738;DHT22;11536;50.860;4.286;2024-01-10T09:35:22;-2.80;99.90
22738;DHT22;11536;50.860;4.286;2024-01-10T09:37:47;-2.70;99.90
22738;DHT22;11536;50.860;4.286;2024-01-10T09:40:15;-2.70;99.90
22738;DHT22;11536;50.860;4.286;2024-01-10T09:42:41;-2.70;99.90
22738;DHT22;11536;50.860;4.286;2024-01-10T09:45:10;-2.60;99.90
22738;DHT22;11536;50.860;4.286;2024-01-10T09:47:39;-2.60;99.90
22738;DHT22;11536;50.860;4.286;2024-01-10T09:50:05;-2.50;99.90
22738;DHT22;11536;50.860;4.286;2024-01-10T09:52:39;-2.50;99.90
22738;DHT22;11536;50.860;4.286;2024-01-10T09:55:07;-2.40;99.90
22738;DHT22;11536;50.860;4.286;2024-01-10T09:57:34;-2.30;99.90
22738;DHT22;11536;50.860;4.286;2024-01-10T10:00:02;-2.30;99.90
22738;DHT22;11536;50.860;4.286;2024-01-10T10:02:32;-2.30;99.90
22738;DHT22;11536;50.860;4.286;2024-01-10T10:05:14;-2.20;99.90
22738;DHT22;11536;50.860;4.286;2024-01-10T10:07:50;-2.20;99.90
22738;DHT22;11536;50.860;4.286;2024-01-10T10:10:17;-2.10;99.90
22738;DHT22;11536;50.860;4.286;2024-01-10T10:12:53;-2.10;99.90
22738;DHT22;11536;50.860;4.286;2024-01-10T10:15:23;-2.10;99.90
22738;DHT22;11536;50.860;4.286;2024-01-10T10:17:50;-2.10;99.90
22738;DHT22;11536;50.860;4.286;2024-01-10T10:20:26;-2.10;99.90
22738;DHT22;11536;50.860;4.286;2024-01-10T10:23:02;-2.00;99.90
22738;DHT22;11536;50.860;4.286;2024-01-10T10:25:36;-2.00;99.90
22738;DHT22;11536;50.860;4.286;2024-01-10T10:28:04;-2.00;99.90
22738;DHT22;11536;50.860;4.286;2024-01-10T10:30:31;-2.10;99.90
22738;DHT22;11536;50.860;4.286;2024-01-10T10:32:57;-2.00;99.90
22738;DHT22;11536;50.860;4.286;2024-01-10T10:35:23;-1.90;99.90
22738;DHT22;11536;50.860;4.286;2024-01-10T10:37:49;-1.90;99.90
22738;DHT22;11536;50.860;4.286;2024-01-10T10:40:16;-1.80;99.90
22738;DHT22;11536;50.860;4.286;2024-01-10T10:42:56;-1.80;99.90
22738;DHT22;11536;50.860;4.286;2024-01-10T10:45:23;-1.90;99.90
22738;DHT22;11536;50.860;4.286;2024-01-10T10:47:59;-1.90;99.90
22738;DHT22;11536;50.860;4.286;2024-01-10T10:50:34;-1.90;99.90
22738;DHT22;11536;50.860;4.286;2024-01-10T10:53:03;-1.90;99.90
22738;DHT22;11536;50.860;4.286;2024-01-10T10:55:29;-1.80;99.90
22738;DHT22;11536;50.860;4.286;2024-01-10T10:57:56;-1.80;99.90
22738;DHT22;11536;50.860;4.286;2024-01-10T11:00:22;-1.80;99.90
22738;DHT22;11536;50.860;4.286;2024-01-10T11:02:56;-1.80;99.90
22738;DHT22;11536;50.860;4.286;2024-01-10T11:05:23;-1.70;99.90
22738;DHT22;11536;50.860;4.286;2024-01-10T11:07:49;-1.70;99.90
22738;DHT22;11536;50.860;4.286;2024-01-10T11:21:28;-1.40;99.90
22738;DHT22;11536;50.860;4.286;2024-01-10T11:24:01;-1.40;99.90
22738;DHT22;11536;50.860;4.286;2024-01-10T11:26:27;-1.40;99.90
22738;DHT22;11536;50.860;4.286;2024-01-10T11:28:53;-1.40;99.90
22738;DHT22;11536;50.860;4.286;2024-01-10T11:31:29;-1.40;99.90
22738;DHT22;11536;50.860;4.286;2024-01-10T11:33:57;-1.40;99.90
22738;DHT22;11536;50.860;4.286;2024-01-10T11:36:23;-1.30;99.90
22738;DHT22;11536;50.860;4.286;2024-01-10T11:46:45;-1.10;99.90
22738;DHT22;11536;50.860;4.286;2024-01-10T11:49:15;-1.00;99.90
22738;DHT22;11536;50.860;4.286;2024-01-10T11:51:50;-1.00;99.90
22738;DHT22;11536;50.860;4.286;2024-01-10T11:54:51;-0.90;99.90
22738;DHT22;11536;50.860;4.286;2024-01-10T11:59:44;-0.70;99.90
22738;DHT22;11536;50.860;4.286;2024-01-10T12:02:13;-0.70;99.90
22738;DHT22;11536;50.860;4.286;2024-01-10T12:04:40;-0.60;99.90
22738;DHT22;11536;50.860;4.286;2024-01-10T12:07:07;-0.50;99.90
22738;DHT22;11536;50.860;4.286;2024-01-10T12:09:36;-0.40;99.90
22738;DHT22;11536;50.860;4.286;2024-01-10T12:12:03;-0.30;99.90
22738;DHT22;11536;50.860;4.286;2024-01-10T12:14:29;-0.30;99.90
22738;DHT22;11536;50.860;4.286;2024-01-10T12:16:55;-0.20;99.90
22738;DHT22;11536;50.860;4.286;2024-01-10T12:19:21;-0.20;99.90
22738;DHT22;11536;50.860;4.286;2024-01-10T12:21:48;0.00;99.90
22738;DHT22;11536;50.860;4.286;2024-01-10T12:24:14;0.30;99.90
22738;DHT22;11536;50.860;4.286;2024-01-10T12:26:44;0.40;99.90
22738;DHT22;11536;50.860;4.286;2024-01-10T12:29:10;0.60;99.90
22738;DHT22;11536;50.860;4.286;2024-01-10T12:31:37;0.60;99.90
22738;DHT22;11536;50.860;4.286;2024-01-10T12:34:07;0.60;99.90
22738;DHT22;11536;50.860;4.286;2024-01-10T12:36:32;0.60;99.90
22738;DHT22;11536;50.860;4.286;2024-01-10T12:38:58;0.60;99.90
22738;DHT22;11536;50.860;4.286;2024-01-10T12:41:24;0.50;99.90
22738;DHT22;11536;50.860;4.286;2024-01-10T12:43:55;0.50;99.90
22738;DHT22;11536;50.860;4.286;2024-01-10T12:46:21;0.50;99.90
22738;DHT22;11536;50.860;4.286;2024-01-10T12:48:59;0.50;99.90
22738;DHT22;11536;50.860;4.286;2024-01-10T12:51:27;0.50;99.90
22738;DHT22;11536;50.860;4.286;2024-01-10T12:53:54;0.50;99.90
22738;DHT22;11536;50.860;4.286;2024-01-10T12:56:20;0.50;99.90
22738;DHT22;11536;50.860;4.286;2024-01-10T12:58:46;0.50;99.90
22738;DHT22;11536;50.860;4.286;2024-01-10T13:01:12;0.60;99.90
22738;DHT22;11536;50.860;4.286;2024-01-10T13:03:40;0.60;99.90
22738;DHT22;11536;50.860;4.286;2024-01-10T13:06:06;0.60;99.90
22738;DHT22;11536;50.860;4.286;2024-01-10T13:08:32;0.60;99.90
22738;DHT22;11536;50.860;4.286;2024-01-10T13:10:58;0.60;99.90
22738;DHT22;11536;50.860;4.286;2024-01-10T13:13:34;0.60;99.90
22738;DHT22;11536;50.860;4.286;2024-01-10T13:16:00;0.80;99.90
22738;DHT22;11536;50.860;4.286;2024-01-10T13:18:27;0.90;99.90
22738;DHT22;11536;50.860;4.286;2024-01-10T13:20:54;0.90;99.90
22738;DHT22;11536;50.860;4.286;2024-01-10T13:23:20;1.00;99.90
22738;DHT22;11536;50.860;4.286;2024-01-10T13:25:50;1.00;99.90
22738;DHT22;11536;50.860;4.286;2024-01-10T13:28:15;1.00;99.90
22738;DHT22;11536;50.860;4.286;2024-01-10T13:30:42;1.00;99.90
22738;DHT22;11536;50.860;4.286;2024-01-10T13:33:10;1.00;99.90
22738;DHT22;11536;50.860;4.286;2024-01-10T13:35:37;1.10;99.90
22738;DHT22;11536;50.860;4.286;2024-01-10T13:38:03;1.00;99.90
22738;DHT22;11536;50.860;4.286;2024-01-10T13:40:29;1.00;99.90
22738;DHT22;11536;50.860;4.286;2024-01-10T13:42:54;1.00;99.90
22738;DHT22;11536;50.860;4.286;2024-01-10T13:45:20;1.00;99.90
22738;DHT22;11536;50.860;4.286;2024-01-10T13:47:46;0.90;99.90
22738;DHT22;11536;50.860;4.286;2024-01-10T13:50:14;0.90;99.90
22738;DHT22;11536;50.860;4.286;2024-01-10T13:52:40;1.00;99.90
22738;DHT22;11536;50.860;4.286;2024-01-10T13:55:06;1.10;99.90
22738;DHT22;11536;50.860;4.286;2024-01-10T13:57:32;1.10;99.90
22738;DHT22;11536;50.860;4.286;2024-01-10T13:59:59;1.10;99.90
22738;DHT22;11536;50.860;4.286;2024-01-10T14:02:25;1.10;99.90
22738;DHT22;11536;50.860;4.286;2024-01-10T14:04:51;1.20;99.90
22738;DHT22;11536;50.860;4.286;2024-01-10T14:07:17;1.10;99.90
22738;DHT22;11536;50.860;4.286;2024-01-10T14:09:43;1.10;99.90
22738;DHT22;11536;50.860;4.286;2024-01-10T14:12:11;1.10;99.90
22738;DHT22;11536;50.860;4.286;2024-01-10T14:14:36;1.10;99.90
22738;DHT22;11536;50.860;4.286;2024-01-10T14:17:02;1.10;99.90
22738;DHT22;11536;50.860;4.286;2024-01-10T14:19:29;1.10;99.90
22738;DHT22;11536;50.860;4.286;2024-01-10T14:21:55;1.10;99.90
22738;DHT22;11536;50.860;4.286;2024-01-10T14:24:23;1.20;99.90
22738;DHT22;11536;50.860;4.286;2024-01-10T14:26:50;1.20;99.90
22738;DHT22;11536;50.860;4.286;2024-01-10T14:29:23;1.20;99.90
22738;DHT22;11536;50.860;4.286;2024-01-10T14:31:50;1.20;99.90
22738;DHT22;11536;50.860;4.286;2024-01-10T14:34:16;1.30;99.90
22738;DHT22;11536;50.860;4.286;2024-01-10T14:36:42;1.20;99.90
22738;DHT22;11536;50.860;4.286;2024-01-10T14:39:08;1.20;99.90
22738;DHT22;11536;50.860;4.286;2024-01-10T14:41:33;1.30;99.90
22738;DHT22;11536;50.860;4.286;2024-01-10T14:44:02;1.30;99.90
22738;DHT22;11536;50.860;4.286;2024-01-10T14:46:29;1.20;99.90
22738;DHT22;11536;50.860;4.286;2024-01-10T14:48:54;1.20;99.90
22738;DHT22;11536;50.860;4.286;2024-01-10T14:51:20;1.30;99.90
22738;DHT22;11536;50.860;4.286;2024-01-10T14:53:46;1.30;99.90
22738;DHT22;11536;50.860;4.286;2024-01-10T14:56:12;1.30;99.90
22738;DHT22;11536;50.860;4.286;2024-01-10T14:58:39;1.30;99.90
22738;DHT22;11536;50.860;4.286;2024-01-10T15:01:14;1.20;99.90
22738;DHT22;11536;50.860;4.286;2024-01-10T15:03:40;1.20;99.90
22738;DHT22;11536;50.860;4.286;2024-01-10T15:06:05;1.20;99.90
22738;DHT22;11536;50.860;4.286;2024-01-10T15:08:31;1.20;99.90
22738;DHT22;11536;50.860;4.286;2024-01-10T15:10:59;1.30;99.90
22738;DHT22;11536;50.860;4.286;2024-01-10T15:13:25;1.30;99.90
22738;DHT22;11536;50.860;4.286;2024-01-10T15:15:51;1.30;99.90
22738;DHT22;11536;50.860;4.286;2024-01-10T15:18:16;1.30;99.90
22738;DHT22;11536;50.860;4.286;2024-01-10T15:20:43;1.40;99.90
22738;DHT22;11536;50.860;4.286;2024-01-10T15:23:09;1.40;99.90
22738;DHT22;11536;50.860;4.286;2024-01-10T15:25:35;1.40;99.90
22738;DHT22;11536;50.860;4.286;2024-01-10T15:28:02;1.40;99.90
22738;DHT22;11536;50.860;4.286;2024-01-10T15:30:29;1.40;99.90
22738;DHT22;11536;50.860;4.286;2024-01-10T15:32:54;1.40;99.90
22738;DHT22;11536;50.860;4.286;2024-01-10T15:35:20;1.30;99.90
22738;DHT22;11536;50.860;4.286;2024-01-10T15:37:46;1.30;99.90
22738;DHT22;11536;50.860;4.286;2024-01-10T15:40:12;1.30;99.90
22738;DHT22;11536;50.860;4.286;2024-01-10T15:42:41;1.30;99.90
22738;DHT22;11536;50.860;4.286;2024-01-10T15:45:11;1.30;99.90
22738;DHT22;11536;50.860;4.286;2024-01-10T15:47:36;1.30;99.90
22738;DHT22;11536;50.860;4.286;2024-01-10T15:50:03;1.30;99.90
22738;DHT22;11536;50.860;4.286;2024-01-10T15:52:29;1.30;99.90
22738;DHT22;11536;50.860;4.286;2024-01-10T15:54:55;1.30;99.90